Time;durP1;ratioP1;P1;durP2;ratioP2;P2;SDS_P1;SDS_P2;PMS_P1;PMS_P2;Temp;Humidity;BMP_temperature;BMP_pressure;BME280_temperature;BME280_humidity;BME280_pressure;Samples;Min_cycle;Max_cycle;Signal;HPM_P1;HPM_P2
2021/07/31 00:06:21;;;;;;;9.70;7.30;;;;;;;16.32;64.08;98699.78;522463;1088;116974;-61
2021/07/31 00:16:32;;;;;;;8.07;6.40;;;;;;;16.16;64.72;98700.52;531744;1088;116398;-59
2021/07/31 00:26:39;;;;;;;10.37;6.87;;;;;;;15.99;64.58;98692.48;523710;1088;117228;-59
2021/07/31 00:36:45;;;;;;;8.00;5.50;;;;;;;15.79;64.98;98695.29;532496;1088;117009;-60
2021/07/31 00:46:53;;;;;;;7.33;6.50;;;;;;;15.71;65.66;98684.66;531674;1089;116546;-60
2021/07/31 00:57:00;;;;;;;9.27;6.63;;;;;;;15.73;65.70;98680.05;519628;1088;118015;-64
2021/07/31 01:07:07;;;;;;;7.13;5.77;;;;;;;15.61;65.86;98666.22;530221;1089;116524;-60
2021/07/31 01:17:14;;;;;;;9.17;5.40;;;;;;;15.61;65.97;98663.56;522264;1088;118868;-60
2021/07/31 01:27:20;;;;;;;10.00;6.80;;;;;;;15.40;66.27;98667.36;518852;1088;116183;-59
2021/07/31 01:37:30;;;;;;;5.37;4.77;;;;;;;15.27;66.41;98651.90;528819;1088;116789;-59
2021/07/31 01:47:37;;;;;;;11.00;6.35;;;;;;;15.35;66.48;98650.29;514911;1088;117533;-60
2021/07/31 01:57:44;;;;;;;7.37;5.70;;;;;;;15.49;66.38;98640.98;532516;1088;116427;-59
2021/07/31 02:07:51;;;;;;;9.40;6.37;;;;;;;15.62;66.07;98645.89;531382;1088;154304;-59
2021/07/31 02:17:58;;;;;;;9.47;6.03;;;;;;;15.56;65.43;98639.40;514490;1089;116977;-59
2021/07/31 02:28:05;;;;;;;8.30;6.20;;;;;;;15.35;65.71;98637.06;514745;1089;116519;-59
2021/07/31 02:38:11;;;;;;;6.98;6.18;;;;;;;15.21;66.43;98641.10;531487;1088;116458;-59
2021/07/31 02:48:18;;;;;;;5.63;5.13;;;;;;;15.25;66.59;98632.72;532675;1089;116738;-61
2021/07/31 02:58:24;;;;;;;7.37;4.70;;;;;;;15.42;66.15;98630.19;531872;1089;116390;-60
2021/07/31 03:08:31;;;;;;;5.83;5.10;;;;;;;15.63;65.92;98637.78;532599;1088;116951;-60
2021/07/31 03:18:38;;;;;;;6.67;5.57;;;;;;;15.85;65.90;98635.61;532539;1090;117142;-61
2021/07/31 03:28:45;;;;;;;10.25;7.10;;;;;;;16.17;64.94;98618.28;531825;1089;116328;-60
2021/07/31 03:38:51;;;;;;;14.37;7.40;;;;;;;16.72;63.93;98617.97;529200;1088;117157;-59
2021/07/31 03:48:57;;;;;;;8.53;7.57;;;;;;;17.20;63.23;98612.94;530141;1088;116834;-61
2021/07/31 03:59:04;;;;;;;10.17;8.07;;;;;;;17.61;61.97;98620.05;531913;1089;116634;-60
2021/07/31 04:09:10;;;;;;;11.33;8.20;;;;;;;18.00;61.41;98629.91;532610;1088;117224;-60
2021/07/31 04:19:17;;;;;;;10.13;9.13;;;;;;;19.66;61.17;98631.67;532641;1088;117053;-61
2021/07/31 04:29:24;;;;;;;9.00;8.10;;;;;;;26.16;53.46;98622.19;532613;1089;116501;-61
2021/07/31 04:39:31;;;;;;;9.47;7.63;;;;;;;24.99;48.83;98611.01;532628;1090;115931;-61
2021/07/31 04:49:39;;;;;;;12.80;8.67;;;;;;;23.45;48.91;98626.51;531905;1089;116544;-60
2021/07/31 04:59:45;;;;;;;8.45;7.55;;;;;;;28.65;46.74;98606.63;532563;1088;116457;-62
2021/07/31 05:09:52;;;;;;;7.80;6.67;;;;;;;32.91;39.53;98609.09;532615;1088;116610;-61
2021/07/31 05:19:59;;;;;;;6.85;6.15;;;;;;;37.82;33.64;98587.88;531909;1089;117871;-59
2021/07/31 05:30:07;;;;;;;6.83;6.03;;;;;;;40.40;29.15;98596.38;532617;1089;115939;-60
2021/07/31 05:40:14;;;;;;;7.90;6.48;;;;;;;39.36;27.42;98585.48;532570;1089;116003;-60
2021/07/31 05:50:21;;;;;;;8.67;5.73;;;;;;;35.09;28.95;98580.34;531852;1089;116454;-60
2021/07/31 06:00:28;;;;;;;8.80;6.95;;;;;;;40.52;26.92;98590.24;532610;1089;116652;-61
2021/07/31 06:10:34;;;;;;;6.95;6.15;;;;;;;44.65;23.03;98587.31;531840;1089;116207;-60
2021/07/31 06:20:41;;;;;;;7.30;5.40;;;;;;;43.18;22.63;98574.82;532534;1089;117121;-61
2021/07/31 06:30:47;;;;;;;6.15;5.63;;;;;;;45.03;20.51;98591.55;532607;1088;116336;-61
2021/07/31 06:40:54;;;;;;;9.05;4.95;;;;;;;46.25;19.71;98586.58;531860;1088;117606;-61
2021/07/31 06:51:03;;;;;;;5.57;5.07;;;;;;;46.52;18.44;98574.80;532609;1089;116647;-61
2021/07/31 07:01:12;;;;;;;6.10;5.50;;;;;;;41.00;20.22;98563.66;532533;1090;152826;-61
2021/07/31 07:11:20;;;;;;;5.38;4.98;;;;;;;37.41;23.06;98559.33;531216;1089;116938;-63
2021/07/31 07:21:26;;;;;;;6.20;5.70;;;;;;;35.94;25.18;98572.67;529059;1089;116370;-63
2021/07/31 07:31:33;;;;;;;6.03;5.27;;;;;;;37.02;25.26;98578.56;531806;1089;115689;-61
2021/07/31 07:41:39;;;;;;;7.23;5.00;;;;;;;39.59;23.86;98570.91;531316;1089;115786;-61
2021/07/31 07:51:46;;;;;;;6.10;4.53;;;;;;;38.96;23.16;98569.77;532524;1088;117909;-61
2021/07/31 08:01:53;;;;;;;9.93;5.98;;;;;;;38.31;24.22;98571.78;531812;1088;115501;-61
2021/07/31 08:12:00;;;;;;;8.80;6.00;;;;;;;36.96;24.95;98587.98;532584;1089;117158;-62
2021/07/31 08:22:06;;;;;;;13.07;5.93;;;;;;;35.86;26.41;98595.98;532626;1090;116898;-62
2021/07/31 08:32:13;;;;;;;6.07;5.30;;;;;;;33.98;27.40;98589.38;531913;1089;116354;-61
2021/07/31 08:42:20;;;;;;;9.05;5.05;;;;;;;32.90;29.22;98599.28;532574;1088;117118;-61
2021/07/31 08:52:32;;;;;;;7.60;5.80;;;;;;;32.46;30.05;98605.17;531541;1089;116108;-60
2021/07/31 09:02:46;;;;;;;7.80;6.20;;;;;;;31.66;31.27;98615.89;532483;1088;117245;-61
2021/07/31 09:12:56;;;;;;;5.90;5.30;;;;;;;30.72;31.68;98616.98;532539;1088;117620;-61
2021/07/31 09:23:02;;;;;;;6.80;4.70;;;;;;;29.12;34.29;98628.25;531854;1088;116302;-59
2021/07/31 09:33:09;;;;;;;8.90;5.95;;;;;;;28.16;36.35;98627.73;532565;1090;116125;-59
2021/07/31 09:43:18;;;;;;;10.43;5.30;;;;;;;27.62;37.48;98628.73;532425;1090;116228;-59
2021/07/31 09:53:27;;;;;;;8.33;6.10;;;;;;;27.91;37.76;98626.97;532474;1089;117875;-60
2021/07/31 10:03:34;;;;;;;6.07;5.57;;;;;;;29.07;37.40;98620.88;532444;1088;116149;-60
2021/07/31 10:13:43;;;;;;;6.08;5.48;;;;;;;30.03;36.73;98619.13;523191;1089;116686;-59
2021/07/31 10:24:07;;;;;;;9.97;7.43;;;;;;;30.65;35.65;98610.97;527244;1088;116240;-60
2021/07/31 10:34:50;;;;;;;8.67;4.43;;;;;;;31.13;34.86;98611.13;531564;1089;117062;-60
2021/07/31 10:45:21;;;;;;;4.53;3.80;;;;;;;31.36;32.94;98600.23;514504;1088;116924;-60
2021/07/31 10:55:48;;;;;;;7.77;3.57;;;;;;;31.22;32.51;98607.95;515620;1088;116371;-59
2021/07/31 11:06:05;;;;;;;6.30;3.90;;;;;;;31.35;32.31;98618.38;528035;1089;116868;-60
2021/07/31 11:16:22;;;;;;;3.40;3.03;;;;;;;31.56;32.53;98610.40;523098;1089;116532;-60
2021/07/31 11:26:41;;;;;;;4.67;4.23;;;;;;;31.25;32.69;98613.71;532495;1089;116574;-60
2021/07/31 11:36:57;;;;;;;3.77;3.27;;;;;;;31.31;32.38;98601.02;527468;1089;116648;-60
2021/07/31 11:47:04;;;;;;;7.40;3.07;;;;;;;31.68;31.92;98599.34;529897;1089;116394;-60
2021/07/31 11:57:11;;;;;;;3.70;3.13;;;;;;;31.40;31.70;98595.91;514015;1088;10000948;-60
2021/07/31 12:07:19;;;;;;;5.33;4.83;;;;;;;30.96;32.23;98591.48;532326;1088;116463;-59
2021/07/31 12:17:26;;;;;;;4.10;3.40;;;;;;;30.98;33.24;98592.84;529942;1089;116558;-59
2021/07/31 12:27:59;;;;;;;3.50;3.20;;;;;;;31.01;32.55;98605.06;532483;1090;116696;-60
2021/07/31 12:38:08;;;;;;;4.57;3.57;;;;;;;30.66;33.13;98609.06;531758;1090;117543;-60
2021/07/31 12:48:15;;;;;;;3.73;3.40;;;;;;;30.47;32.99;98609.36;532528;1088;118157;-60
2021/07/31 12:58:23;;;;;;;5.50;3.93;;;;;;;30.68;33.18;98607.74;532441;1089;116124;-55
2021/07/31 13:08:30;;;;;;;5.13;4.63;;;;;;;30.41;34.41;98618.52;532168;1089;173527;-59
2021/07/31 13:18:36;;;;;;;5.20;3.67;;;;;;;30.38;34.76;98614.42;532524;1088;116267;-60
2021/07/31 13:28:43;;;;;;;6.78;4.28;;;;;;;30.38;35.65;98603.59;531729;1090;116106;-60
2021/07/31 13:38:51;;;;;;;3.85;3.50;;;;;;;30.24;35.13;98599.64;532471;1089;117192;-59
2021/07/31 13:48:57;;;;;;;4.40;4.00;;;;;;;30.20;34.89;98602.86;532516;1089;117607;-59
2021/07/31 13:59:05;;;;;;;4.28;3.48;;;;;;;30.48;33.87;98603.70;531752;1089;116554;-59
2021/07/31 14:09:11;;;;;;;4.13;2.30;;;;;;;29.75;33.02;98591.14;532428;1089;116305;-60
2021/07/31 14:19:19;;;;;;;3.20;2.90;;;;;;;28.85;32.23;98597.27;532312;1090;117012;-60
2021/07/31 14:29:25;;;;;;;2.53;1.67;;;;;;;28.37;32.12;98593.94;532415;1089;116647;-58
2021/07/31 14:39:34;;;;;;;1.98;1.88;;;;;;;28.25;32.68;98599.36;532463;1090;117858;-58
2021/07/31 14:49:41;;;;;;;3.23;2.40;;;;;;;28.02;33.40;98595.63;531778;1089;117644;-57
2021/07/31 14:59:48;;;;;;;2.78;2.58;;;;;;;27.72;34.34;98590.39;532392;1088;117107;-58
2021/07/31 15:09:54;;;;;;;3.98;2.90;;;;;;;27.49;35.67;98584.75;532414;1089;116720;-57
2021/07/31 15:20:01;;;;;;;5.97;3.40;;;;;;;27.30;35.87;98599.38;531794;1089;116752;-58
2021/07/31 15:30:08;;;;;;;3.87;3.57;;;;;;;26.99;36.66;98588.67;532523;1089;116433;-58
2021/07/31 15:40:17;;;;;;;4.23;2.77;;;;;;;26.74;37.63;98588.80;532433;1088;115835;-58
2021/07/31 15:50:24;;;;;;;3.50;3.17;;;;;;;26.58;38.04;98581.13;532463;1087;116107;-58
2021/07/31 16:00:32;;;;;;;4.00;3.17;;;;;;;26.38;37.96;98573.33;532386;1088;116177;-58
2021/07/31 16:10:40;;;;;;;3.50;3.20;;;;;;;26.25;38.15;98568.92;525914;1088;116487;-58
2021/07/31 16:20:46;;;;;;;4.08;2.93;;;;;;;26.16;38.52;98570.28;523299;1088;116737;-59
2021/07/31 16:30:53;;;;;;;3.20;3.00;;;;;;;26.10;38.78;98566.63;528537;1088;116507;-57
2021/07/31 16:40:59;;;;;;;3.30;3.00;;;;;;;26.02;38.97;98565.03;525559;1088;116137;-58
2021/07/31 16:51:06;;;;;;;6.47;3.23;;;;;;;25.91;39.32;98573.84;532475;1090;117004;-58
2021/07/31 17:01:13;;;;;;;5.80;3.70;;;;;;;25.73;39.68;98574.66;532415;1089;115653;-60
2021/07/31 17:11:20;;;;;;;6.40;3.45;;;;;;;27.36;37.83;98564.23;531589;1088;116641;-60
2021/07/31 17:21:27;;;;;;;4.53;3.35;;;;;;;26.10;39.42;98566.63;532498;1089;116204;-60
2021/07/31 17:31:34;;;;;;;3.63;3.33;;;;;;;25.67;40.33;98565.62;531766;1089;116660;-60
2021/07/31 17:41:41;;;;;;;5.15;4.05;;;;;;;25.55;41.32;98560.17;532424;1089;115816;-60
2021/07/31 17:51:48;;;;;;;8.90;3.90;;;;;;;24.98;42.42;98574.45;532391;1088;116166;-60
2021/07/31 18:01:58;;;;;;;4.90;3.70;;;;;;;24.42;42.86;98574.14;531787;1088;116320;-60
2021/07/31 18:12:06;;;;;;;5.75;4.63;;;;;;;23.93;44.77;98582.55;532522;1089;117040;-64
2021/07/31 18:22:15;;;;;;;7.83;4.17;;;;;;;23.42;46.27;98592.11;532566;1090;116437;-63
2021/07/31 18:32:21;;;;;;;6.08;4.55;;;;;;;22.97;47.37;98599.88;531789;1088;115854;-64
2021/07/31 18:42:28;;;;;;;7.97;6.00;;;;;;;22.51;48.87;98608.42;532508;1088;116375;-63
2021/07/31 18:52:34;;;;;;;7.87;5.50;;;;;;;22.06;50.13;98618.67;531713;1088;115904;-60
2021/07/31 19:02:41;;;;;;;13.70;7.80;;;;;;;21.66;51.19;98627.22;532505;1090;115839;-59
2021/07/31 19:12:48;;;;;;;13.13;7.60;;;;;;;21.35;52.89;98633.75;532493;1090;116175;-59
2021/07/31 19:22:55;;;;;;;12.03;7.83;;;;;;;21.02;54.11;98631.59;531750;1089;117459;-59
2021/07/31 19:33:01;;;;;;;16.53;11.57;;;;;;;20.72;55.13;98645.81;532524;1088;116652;-60
2021/07/31 19:43:08;;;;;;;18.50;8.90;;;;;;;20.46;56.16;98643.65;529536;1088;117498;-60
2021/07/31 19:53:17;;;;;;;14.73;9.80;;;;;;;20.35;56.16;98637.77;531913;1089;117161;-59
2021/07/31 20:03:23;;;;;;;15.27;9.83;;;;;;;20.26;57.24;98649.57;532572;1089;116606;-59
2021/07/31 20:13:30;;;;;;;13.20;8.80;;;;;;;20.09;57.31;98662.25;531858;1088;116840;-59
2021/07/31 20:23:37;;;;;;;11.07;8.93;;;;;;;19.94;57.65;98678.22;532618;1090;116494;-59
2021/07/31 20:33:44;;;;;;;11.50;8.63;;;;;;;19.76;58.34;98697.98;532614;1089;116219;-59
2021/07/31 20:43:52;;;;;;;14.60;9.18;;;;;;;19.53;58.58;98724.64;531876;1089;116221;-59
2021/07/31 20:53:58;;;;;;;10.40;9.20;;;;;;;19.31;59.43;98688.00;532623;1089;116611;-59
2021/07/31 21:04:05;;;;;;;12.85;11.00;;;;;;;19.25;59.90;98703.86;532577;1089;117470;-60
2021/07/31 21:14:11;;;;;;;11.47;9.20;;;;;;;19.00;60.53;98726.13;531885;1089;117527;-59
2021/07/31 21:24:18;;;;;;;14.30;10.53;;;;;;;18.71;61.09;98730.20;532615;1089;116198;-61
2021/07/31 21:34:25;;;;;;;12.23;10.00;;;;;;;18.40;61.81;98738.13;531871;1088;116889;-59
2021/07/31 21:44:33;;;;;;;12.50;9.50;;;;;;;18.26;62.06;98752.92;532439;1089;117027;-59
2021/07/31 21:54:39;;;;;;;17.00;12.08;;;;;;;18.14;62.32;98760.43;523411;1089;10001200;-60
2021/07/31 22:04:46;;;;;;;19.80;14.87;;;;;;;17.95;62.59;98765.05;531702;1088;117789;-59
2021/07/31 22:14:53;;;;;;;16.67;14.27;;;;;;;17.72;63.27;98771.02;519231;1088;116752;-59
2021/07/31 22:24:59;;;;;;;17.23;15.50;;;;;;;17.64;63.75;98771.84;532481;1089;116672;-58
2021/07/31 22:35:07;;;;;;;17.60;12.37;;;;;;;17.50;64.05;98772.50;531785;1089;117555;-59
2021/07/31 22:45:14;;;;;;;13.57;11.77;;;;;;;17.34;64.46;98773.30;532577;1089;117826;-59
2021/07/31 22:55:21;;;;;;;16.53;12.40;;;;;;;17.22;64.77;98775.41;532497;1089;116752;-59
2021/07/31 23:05:27;;;;;;;13.20;11.80;;;;;;;17.10;64.99;98782.84;515567;1088;116297;-59
2021/07/31 23:15:38;;;;;;;14.73;12.77;;;;;;;17.01;65.05;98781.14;529308;1088;116645;-65
2021/07/31 23:25:45;;;;;;;15.25;12.70;;;;;;;16.86;65.39;98776.42;520668;1088;117095;-59
2021/07/31 23:35:51;;;;;;;14.93;13.03;;;;;;;16.73;65.49;98781.31;524990;1088;116869;-58
2021/07/31 23:45:59;;;;;;;14.70;10.60;;;;;;;16.51;66.21;98783.53;526487;1089;174601;-58
2021/07/31 23:56:09;;;;;;;13.10;10.53;;;;;;;16.42;66.36;98795.88;526738;1089;117366;-59
